createdAt,value
2019-04-11T00:00:05.025Z,60.78
2019-04-11T00:02:38.550Z,62.48
2019-04-11T00:05:10.607Z,59.70
2019-04-11T00:07:42.551Z,62.45
2019-04-11T00:10:14.481Z,60.58
2019-04-11T00:12:46.467Z,60.55
2019-04-11T00:15:18.176Z,61.42
2019-04-11T00:17:50.223Z,56.60
2019-04-11T00:20:22.439Z,60.40
2019-04-11T00:22:54.604Z,61.95
2019-04-11T00:25:27.367Z,63.87
2019-04-11T00:27:59.374Z,61.02
2019-04-11T00:30:32.295Z,58.35
2019-04-11T00:33:03.685Z,61.40
2019-04-11T00:35:35.568Z,60.58
2019-04-11T00:38:07.750Z,63.52
2019-04-11T00:40:39.867Z,58.60
2019-04-11T00:43:12.219Z,57.83
2019-04-11T00:45:43.950Z,59.83
2019-04-11T00:48:15.663Z,62.98
2019-04-11T00:50:47.632Z,59.80
2019-04-11T00:53:20.185Z,62.60
2019-04-11T00:55:53.541Z,60.85
2019-04-11T00:58:25.674Z,58.60
2019-04-11T01:00:57.567Z,58.02
2019-04-11T01:03:29.031Z,54.67
2019-04-11T01:06:01.377Z,61.88
2019-04-11T01:08:33.597Z,59.10
2019-04-11T01:11:05.866Z,60.20
2019-04-11T01:13:44.428Z,62.25
2019-04-11T01:16:21.518Z,58.98
2019-04-11T01:18:52.781Z,57.15
2019-04-11T01:21:24.322Z,58.60
2019-04-11T01:23:56.075Z,59.42
2019-04-11T01:26:28.244Z,57.43
2019-04-11T01:29:00.838Z,62.23
2019-04-11T01:31:33.790Z,61.95
2019-04-11T01:34:06.476Z,57.50
2019-04-11T01:36:45.623Z,59.10
2019-04-11T01:39:37.129Z,59.63
2019-04-11T01:42:09.160Z,57.83
2019-04-11T01:44:41.074Z,59.23
2019-04-11T01:47:15.411Z,57.62
2019-04-11T01:49:46.729Z,55.60
2019-04-11T01:52:18.237Z,58.92
2019-04-11T01:54:50.077Z,56.60
2019-04-11T01:57:22.156Z,54.53
2019-04-11T01:59:53.683Z,55.03
2019-04-11T02:02:44.784Z,54.40
2019-04-11T02:05:23.615Z,58.23
2019-04-11T02:07:55.991Z,51.37
2019-04-11T02:10:27.243Z,54.35
2019-04-11T02:12:59.606Z,54.08
2019-04-11T02:15:31.076Z,47.37
2019-04-11T02:18:03.358Z,49.67
2019-04-11T02:20:36.792Z,46.05
2019-04-11T02:23:30.931Z,47.08
2019-04-11T02:26:13.457Z,45.75
2019-04-11T02:28:44.872Z,41.73
2019-04-11T02:31:17.376Z,41.00
2019-04-11T02:33:51.164Z,41.28
2019-04-11T02:36:24.787Z,40.15
2019-04-11T02:38:58.919Z,37.33
2019-04-11T02:41:30.303Z,39.15
2019-04-11T02:44:03.567Z,38.88
2019-04-11T02:46:43.632Z,30.95
2019-04-11T02:49:10.106Z,31.30
2019-04-11T02:51:43.130Z,31.52
2019-04-11T02:54:15.914Z,33.18
2019-04-11T02:56:50.386Z,31.57
2019-04-11T02:59:22.006Z,28.73
2019-04-11T03:01:53.616Z,31.85
2019-04-11T03:04:26.948Z,27.97
2019-04-11T03:07:00.466Z,29.98
2019-04-11T03:09:31.977Z,27.37
2019-04-11T03:12:05.076Z,27.77
2019-04-11T03:14:54.335Z,28.45
2019-04-11T03:19:54.278Z,31.12
2019-04-11T03:22:16.118Z,26.00
2019-04-11T03:24:49.137Z,29.77
2019-04-11T03:27:22.463Z,28.65
2019-04-11T03:35:52.269Z,28.42
2019-04-11T03:38:15.272Z,27.80
2019-04-11T03:40:28.764Z,27.00
2019-04-11T03:42:55.662Z,29.25
2019-04-11T03:45:41.662Z,30.27
2019-04-11T03:48:08.973Z,28.67
2019-04-11T03:50:25.959Z,28.10
2019-04-11T03:52:59.475Z,26.65
2019-04-11T03:55:32.221Z,28.27
2019-04-11T03:58:06.017Z,26.60
2019-04-11T04:00:41.229Z,27.93
2019-04-11T04:03:13.470Z,28.02
2019-04-11T04:05:44.838Z,27.70
2019-04-11T04:08:17.925Z,28.95
2019-04-11T04:14:08.202Z,28.47
2019-04-11T04:16:52.457Z,24.55
2019-04-11T04:22:24.792Z,23.12
2019-04-11T04:24:56.779Z,24.23
2019-04-11T04:27:30.538Z,22.52
2019-04-11T04:30:05.086Z,25.68
2019-04-11T04:32:36.218Z,26.10
2019-04-11T04:35:12.713Z,26.70
2019-04-11T04:37:40.976Z,24.65
2019-04-11T04:40:31.442Z,26.77
2019-04-11T04:42:50.971Z,22.52
2019-04-11T04:45:21.496Z,27.37
2019-04-11T04:47:59.210Z,24.12
2019-04-11T04:50:28.738Z,26.73
2019-04-11T04:53:02.586Z,26.82
2019-04-11T04:55:34.943Z,26.17
2019-04-11T04:58:07.243Z,24.92
2019-04-11T05:00:39.650Z,21.82
2019-04-11T05:03:11.388Z,22.43
2019-04-11T05:05:44.239Z,23.57
2019-04-11T05:08:18.455Z,21.50
2019-04-11T05:10:51.298Z,22.27
2019-04-11T05:13:23.949Z,22.40
2019-04-11T05:16:07.392Z,22.37
2019-04-11T05:18:29.905Z,22.10
2019-04-11T05:21:10.753Z,20.57
2019-04-11T05:23:48.507Z,21.55
2019-04-11T05:26:19.862Z,20.35
2019-04-11T05:28:51.226Z,19.92
2019-04-11T05:31:22.716Z,21.42
2019-04-11T05:33:55.967Z,23.92
2019-04-11T05:36:28.291Z,21.10
2019-04-11T05:41:33.950Z,23.12
2019-04-11T05:44:10.132Z,20.55
2019-04-11T05:46:49.255Z,22.40
2019-04-11T05:49:29.059Z,25.30
2019-04-11T05:52:05.954Z,21.07
2019-04-11T05:54:48.872Z,22.42
2019-04-11T05:57:23.806Z,21.87
2019-04-11T05:59:55.116Z,23.05
2019-04-11T06:02:35.226Z,24.43
2019-04-11T06:05:24.502Z,22.50
2019-04-11T06:07:58.312Z,26.15
2019-04-11T06:10:46.498Z,21.93
2019-04-11T06:13:26.783Z,21.55
2019-04-11T06:16:01.387Z,21.33
2019-04-11T06:19:06.121Z,22.10
2019-04-11T06:21:42.339Z,23.77
2019-04-11T06:24:32.156Z,22.35
2019-04-11T06:27:12.494Z,23.70
2019-04-11T06:30:12.659Z,22.52
2019-04-11T06:33:05.923Z,20.92
2019-04-11T06:35:50.408Z,21.50
2019-04-11T06:38:39.355Z,20.52
2019-04-11T06:41:18.738Z,23.00
2019-04-11T06:44:06.901Z,21.40
2019-04-11T06:47:02.657Z,23.22
2019-04-11T06:49:40.946Z,21.70
2019-04-11T06:52:12.978Z,21.90
2019-04-11T06:55:04.489Z,21.68
2019-04-11T06:57:36.293Z,21.52
2019-04-11T07:00:09.188Z,23.05
2019-04-11T07:02:44.466Z,22.90
2019-04-11T07:05:18.323Z,18.98
2019-04-11T07:07:52.134Z,21.37
2019-04-11T07:10:30.675Z,21.20
2019-04-11T07:13:12.920Z,21.05
2019-04-11T07:15:48.810Z,22.90
2019-04-11T07:18:33.769Z,24.55
2019-04-11T07:21:08.381Z,23.42
2019-04-11T07:23:57.710Z,20.82
2019-04-11T07:26:33.131Z,22.27
2019-04-11T07:29:26.816Z,24.40
2019-04-11T07:32:13.575Z,20.37
2019-04-11T07:35:04.813Z,21.25
2019-04-11T07:37:47.443Z,22.22
2019-04-11T07:40:56.073Z,23.53
2019-04-11T07:43:36.119Z,21.85
2019-04-11T07:46:27.773Z,21.42
2019-04-11T07:49:05.983Z,20.55
2019-04-11T07:51:45.627Z,23.02
2019-04-11T07:54:23.178Z,22.55
2019-04-11T07:57:17.452Z,23.00
2019-04-11T08:00:19.377Z,22.65
2019-04-11T08:03:09.985Z,20.68
2019-04-11T08:05:59.392Z,22.00
2019-04-11T08:08:53.076Z,24.35
2019-04-11T08:11:40.071Z,20.55
2019-04-11T08:14:42.462Z,19.82
2019-04-11T08:17:25.962Z,23.27
2019-04-11T08:20:07.928Z,21.95
2019-04-11T08:22:45.471Z,22.93
2019-04-11T08:25:45.586Z,25.27
2019-04-11T08:28:18.388Z,21.17
2019-04-11T08:31:08.796Z,21.20
2019-04-11T08:33:40.553Z,26.07
2019-04-11T08:36:38.018Z,21.07
2019-04-11T08:39:15.815Z,19.25
2019-04-11T08:42:03.212Z,23.02
2019-04-11T08:44:37.930Z,20.40
2019-04-11T08:47:12.324Z,22.07
2019-04-11T08:49:46.112Z,24.25
2019-04-11T08:52:40.646Z,23.30
2019-04-11T08:55:29.309Z,21.05
2019-04-11T08:58:09.530Z,23.25
2019-04-11T09:00:48.855Z,22.10
2019-04-11T09:04:01.220Z,24.77
2019-04-11T09:06:28.528Z,22.10
2019-04-11T09:09:20.797Z,23.57
2019-04-11T09:11:56.441Z,22.98
2019-04-11T09:14:47.067Z,29.15
2019-04-11T09:17:30.978Z,25.17
2019-04-11T09:20:21.292Z,22.30
2019-04-11T09:23:04.136Z,26.25
2019-04-11T09:25:55.355Z,26.83
2019-04-11T09:28:54.093Z,23.65
2019-04-11T09:31:45.553Z,22.10
2019-04-11T09:34:30.045Z,23.07
2019-04-11T09:37:27.467Z,21.87
2019-04-11T09:40:26.071Z,23.85
2019-04-11T09:43:09.647Z,28.95
2019-04-11T09:46:03.849Z,28.92
2019-04-11T09:48:46.328Z,27.85
2019-04-11T09:51:40.777Z,27.50
2019-04-11T09:54:20.877Z,26.50
2019-04-11T09:57:12.091Z,28.52
2019-04-11T09:59:49.758Z,25.48
2019-04-11T10:02:40.128Z,25.82
2019-04-11T10:05:13.764Z,22.95
2019-04-11T10:08:06.391Z,27.17
2019-04-11T10:11:05.895Z,30.65
2019-04-11T10:13:53.298Z,26.50
2019-04-11T10:16:53.338Z,27.75
2019-04-11T10:19:57.591Z,29.10
2019-04-11T10:22:40.414Z,26.77
2019-04-11T10:25:35.031Z,28.87
2019-04-11T10:28:29.544Z,32.93
2019-04-11T10:31:20.312Z,28.52
2019-04-11T10:34:13.799Z,27.60
2019-04-11T10:37:07.409Z,27.42
2019-04-11T10:40:00.243Z,28.47
2019-04-11T10:42:34.997Z,28.87
2019-04-11T10:45:29.394Z,30.10
2019-04-11T10:48:07.691Z,30.45
2019-04-11T10:50:58.330Z,31.52
2019-04-11T10:53:31.142Z,30.50
2019-04-11T10:56:39.758Z,32.13
2019-04-11T10:59:13.305Z,29.57
2019-04-11T11:02:06.848Z,28.00
2019-04-11T11:05:03.226Z,28.85
2019-04-11T11:07:35.480Z,30.00
2019-04-11T11:10:11.119Z,31.93
2019-04-11T11:13:01.419Z,30.52
2019-04-11T11:15:37.878Z,31.15
2019-04-11T11:18:48.157Z,31.50
2019-04-11T11:21:07.299Z,32.17
2019-04-11T11:23:58.487Z,30.68
2019-04-11T11:26:39.555Z,28.12
2019-04-11T11:29:33.111Z,30.88
2019-04-11T11:32:11.650Z,35.78
2019-04-11T11:35:08.133Z,33.60
2019-04-11T11:37:57.535Z,35.98
2019-04-11T11:41:03.907Z,34.18
2019-04-11T11:43:36.223Z,31.80
2019-04-11T11:46:30.979Z,40.75
2019-04-11T11:49:14.076Z,38.17
2019-04-11T11:52:09.621Z,31.48
2019-04-11T11:54:48.180Z,34.95
2019-04-11T11:57:37.344Z,34.10
2019-04-11T12:00:18.924Z,34.13
2019-04-11T12:03:12.877Z,39.83
2019-04-11T12:05:52.193Z,36.10
2019-04-11T12:08:51.476Z,38.65
2019-04-11T12:11:28.365Z,35.30
2019-04-11T12:14:18.083Z,35.90
2019-04-11T12:17:01.980Z,38.63
2019-04-11T12:19:44.876Z,44.83
2019-04-11T12:22:08.568Z,36.15
2019-04-11T12:24:46.270Z,34.30
2019-04-11T12:27:28.933Z,42.65
2019-04-11T12:30:43.978Z,36.93
2019-04-11T12:33:35.333Z,37.30
2019-04-11T12:36:14.567Z,46.98
2019-04-11T12:39:12.241Z,35.80
2019-04-11T12:41:52.776Z,39.15
2019-04-11T12:44:52.154Z,36.40
2019-04-11T12:47:33.588Z,40.88
2019-04-11T12:50:25.770Z,38.10
2019-04-11T12:53:08.660Z,36.55
2019-04-11T12:55:56.031Z,40.45
2019-04-11T12:58:29.830Z,36.38
2019-04-11T13:01:20.915Z,38.40
2019-04-11T13:04:24.384Z,38.73
2019-04-11T13:07:16.361Z,34.45
2019-04-11T13:09:54.239Z,39.08
2019-04-11T13:12:57.696Z,33.50
2019-04-11T13:15:43.625Z,38.60
2019-04-11T13:18:33.593Z,39.58
2019-04-11T13:21:15.212Z,39.78
2019-04-11T13:24:09.027Z,39.10
2019-04-11T13:27:10.419Z,39.88
2019-04-11T13:30:03.879Z,41.02
2019-04-11T13:32:56.178Z,40.08
2019-04-11T13:35:36.542Z,41.90
2019-04-11T13:38:14.718Z,36.45
2019-04-11T13:41:06.127Z,39.85
2019-04-11T13:43:43.192Z,36.35
2019-04-11T13:46:36.348Z,37.25
2019-04-11T13:49:28.419Z,43.98
2019-04-11T13:52:19.679Z,39.25
2019-04-11T13:55:28.597Z,42.05
2019-04-11T13:58:25.113Z,45.28
2019-04-11T14:00:58.539Z,42.40
2019-04-11T18:52:28.786Z,38.63
2019-04-11T18:54:59.439Z,34.95
2019-04-11T18:57:33.747Z,34.55
2019-04-11T19:00:10.494Z,38.15
2019-04-11T19:02:43.721Z,34.88
2019-04-11T19:07:47.936Z,33.88
2019-04-11T19:10:21.589Z,35.60
2019-04-11T19:12:54.289Z,33.25
2019-04-11T19:15:25.924Z,34.92
2019-04-11T19:18:06.083Z,32.00
2019-04-11T19:20:34.530Z,33.88
2019-04-11T19:23:07.909Z,33.02
2019-04-11T19:25:44.490Z,31.05
2019-04-11T19:28:19.783Z,35.90
2019-04-11T19:30:53.940Z,32.35
2019-04-11T19:33:34.064Z,33.30
2019-04-11T19:36:04.044Z,34.30
2019-04-11T19:38:37.125Z,34.43
2019-04-11T19:41:11.034Z,27.67
2019-04-11T19:43:43.400Z,34.30
2019-04-11T19:46:15.460Z,31.15
2019-04-11T19:48:47.503Z,29.67
2019-04-11T19:51:20.404Z,32.48
2019-04-11T19:53:56.192Z,29.75
2019-04-11T19:56:39.774Z,34.25
2019-04-11T19:59:16.264Z,30.77
2019-04-11T20:01:50.765Z,30.37
2019-04-11T20:04:24.938Z,33.23
2019-04-11T20:07:02.798Z,31.85
2019-04-11T20:09:39.740Z,31.73
2019-04-11T20:12:13.280Z,33.55
2019-04-11T20:14:47.764Z,31.20
2019-04-11T20:17:20.106Z,30.25
2019-04-11T20:20:01.227Z,31.30
2019-04-11T20:22:28.692Z,29.63
2019-04-11T20:25:03.941Z,29.92
2019-04-11T20:27:36.188Z,29.45
2019-04-11T20:30:15.820Z,29.72
2019-04-11T20:33:02.887Z,28.05
2019-04-11T20:35:41.894Z,28.45
2019-04-11T20:38:25.921Z,33.55
2019-04-11T20:41:10.311Z,31.10
2019-04-11T20:43:56.052Z,32.30
2019-04-11T20:46:36.386Z,33.30
2019-04-11T20:49:34.732Z,26.80
2019-04-11T20:52:23.128Z,28.75
2019-04-11T20:54:59.100Z,31.15
2019-04-11T20:57:31.353Z,27.98
2019-04-11T21:00:05.913Z,29.50
2019-04-11T21:02:41.315Z,35.68
2019-04-11T21:05:13.648Z,30.37
2019-04-11T21:07:46.109Z,28.17
2019-04-11T21:10:17.854Z,30.97
2019-04-11T21:12:49.857Z,29.32
2019-04-11T21:15:21.761Z,29.92
2019-04-11T21:17:53.628Z,28.65
2019-04-11T21:20:27.192Z,28.85
2019-04-11T21:22:59.068Z,28.20
2019-04-11T21:25:30.365Z,29.63
2019-04-11T21:28:02.216Z,25.43
2019-04-11T21:30:33.986Z,28.12
2019-04-11T21:33:05.873Z,27.75
2019-04-11T21:35:37.406Z,28.17
2019-04-11T21:38:10.046Z,27.98
2019-04-11T21:40:41.328Z,25.90
2019-04-11T21:43:12.726Z,26.75
2019-04-11T21:45:44.728Z,27.45
2019-04-11T21:48:16.014Z,25.75
2019-04-11T21:50:47.347Z,28.20
2019-04-11T21:53:18.746Z,26.87
2019-04-11T21:56:18.633Z,28.98
2019-04-11T21:58:50.736Z,26.27
2019-04-11T22:01:24.839Z,24.37
2019-04-11T22:03:57.687Z,24.77
2019-04-11T22:06:30.484Z,26.25
2019-04-11T22:09:04.833Z,24.60
2019-04-11T22:11:38.455Z,24.35
2019-04-11T22:14:11.303Z,30.12
2019-04-11T22:16:45.123Z,27.05
2019-04-11T22:19:17.172Z,24.00
2019-04-11T22:21:48.431Z,28.98
2019-04-11T22:24:19.789Z,25.43
2019-04-11T22:26:51.446Z,25.08
2019-04-11T22:29:24.836Z,26.12
2019-04-11T22:31:56.598Z,23.87
2019-04-11T22:34:33.993Z,28.32
2019-04-11T22:37:05.732Z,25.25
2019-04-11T22:39:37.012Z,24.43
2019-04-11T22:42:08.424Z,28.10
2019-04-11T22:44:39.761Z,26.17
2019-04-11T22:47:11.582Z,26.80
2019-04-11T22:49:43.002Z,25.23
2019-04-11T22:52:14.278Z,25.55
2019-04-11T22:54:45.543Z,26.55
2019-04-11T22:57:17.252Z,26.77
2019-04-11T22:59:48.687Z,26.25
2019-04-11T23:02:30.211Z,24.55
2019-04-11T23:05:03.919Z,26.75
2019-04-11T23:07:35.554Z,25.77
2019-04-11T23:10:07.134Z,25.23
2019-04-11T23:12:38.545Z,24.47
2019-04-11T23:15:14.718Z,28.45
2019-04-11T23:17:44.589Z,27.32
2019-04-11T23:20:16.130Z,27.30
2019-04-11T23:22:47.426Z,29.50
2019-04-11T23:25:18.739Z,26.97
2019-04-11T23:27:51.153Z,27.15
2019-04-11T23:30:22.432Z,28.73
2019-04-11T23:32:54.220Z,26.00
2019-04-11T23:35:25.563Z,27.27
2019-04-11T23:37:56.851Z,28.50
2019-04-11T23:40:28.694Z,27.62
2019-04-11T23:43:00.160Z,32.85
2019-04-11T23:45:31.700Z,28.62
2019-04-11T23:48:03.082Z,30.30
2019-04-11T23:50:34.364Z,29.72
2019-04-11T23:53:05.817Z,28.77
2019-04-11T23:55:37.164Z,29.72
2019-04-11T23:58:08.547Z,30.40
